Time;durP1;ratioP1;P1;durP2;ratioP2;P2;SDS_P1;SDS_P2;PMS_P1;PMS_P2;Temp;Humidity;BMP_temperature;BMP_pressure;BME280_temperature;BME280_humidity;BME280_pressure;Samples;Min_cycle;Max_cycle;Signal;HPM_P1;HPM_P2
2023/08/04 00:00:45;;;;;;;12.50;9.23;;;;;;;29.78;45.81;98782.88;5011375;28;20109;-87
2023/08/04 00:03:10;;;;;;;11.50;10.30;;;;;;;29.80;45.27;98782.41;5011024;28;20072;-87
2023/08/04 00:05:36;;;;;;;14.23;9.30;;;;;;;29.75;44.98;98778.09;5010498;28;20547;-88
2023/08/04 00:08:01;;;;;;;14.45;10.32;;;;;;;29.70;44.98;98764.38;5010567;28;20022;-88
2023/08/04 00:10:27;;;;;;;11.15;9.95;;;;;;;29.77;44.97;98774.75;5010674;28;20053;-88
2023/08/04 00:12:52;;;;;;;13.63;9.90;;;;;;;29.88;44.85;98780.81;5011165;28;20117;-88
2023/08/04 00:15:18;;;;;;;13.02;10.75;;;;;;;29.70;44.83;98764.38;5010227;28;20022;-88
2023/08/04 00:17:43;;;;;;;22.65;10.63;;;;;;;29.70;45.56;98784.53;5010603;28;20026;-88
2023/08/04 00:20:10;;;;;;;29.30;10.68;;;;;;;29.75;45.83;98783.09;5011611;28;20034;-88
2023/08/04 00:22:37;;;;;;;14.98;10.18;;;;;;;29.78;45.26;98785.78;5010428;28;20497;-88
2023/08/04 00:25:06;;;;;;;16.17;11.32;;;;;;;29.75;45.48;98783.09;5010851;28;20022;-88
2023/08/04 00:27:32;;;;;;;14.75;9.63;;;;;;;29.69;45.69;98785.81;5010590;28;20370;-87
2023/08/04 00:29:57;;;;;;;14.10;10.70;;;;;;;29.66;46.11;98787.59;5010747;28;20030;-88
2023/08/04 00:32:23;;;;;;;18.80;10.20;;;;;;;29.61;46.49;98791.09;5006902;28;20022;-88
2023/08/04 00:34:48;;;;;;;12.82;10.38;;;;;;;29.48;46.94;98785.53;5008373;28;20089;-87
2023/08/04 00:37:14;;;;;;;12.38;10.10;;;;;;;29.29;47.77;98785.53;5010381;28;20022;-87
2023/08/04 00:39:39;;;;;;;14.38;10.18;;;;;;;29.30;47.84;98786.34;5010432;28;20026;-87
2023/08/04 00:42:05;;;;;;;13.10;9.77;;;;;;;29.36;47.84;98798.78;5010891;28;20081;-87
2023/08/04 00:44:30;;;;;;;11.45;8.55;;;;;;;29.07;48.54;98773.38;5010605;28;20022;-88
2023/08/04 00:46:57;;;;;;;10.25;8.93;;;;;;;28.96;48.93;98794.81;5011231;28;20058;-87
2023/08/04 00:49:23;;;;;;;13.57;9.18;;;;;;;29.04;49.13;98782.97;5008537;28;20023;-88
2023/08/04 00:51:48;;;;;;;9.93;8.93;;;;;;;28.81;49.27;98776.53;5009330;28;20053;-87
2023/08/04 00:54:14;;;;;;;14.10;9.60;;;;;;;28.85;49.58;98785.88;5010304;28;20037;-87
2023/08/04 00:56:39;;;;;;;15.93;8.32;;;;;;;28.63;49.78;98791.69;5010401;28;20030;-87
2023/08/04 00:59:06;;;;;;;10.15;8.10;;;;;;;28.42;50.33;98779.84;5010158;28;20026;-87
2023/08/04 01:01:31;;;;;;;8.90;8.00;;;;;;;28.72;49.89;98792.53;5013466;28;20053;-87
2023/08/04 01:03:57;;;;;;;11.55;7.95;;;;;;;28.65;50.01;98787.09;5013578;28;20026;-87
2023/08/04 01:06:42;;;;;;;9.95;8.27;;;;;;;28.45;51.00;98796.16;5015312;28;20489;-87
2023/08/04 01:09:30;;;;;;;10.18;8.25;;;;;;;28.39;50.86;98801.72;5012742;28;20484;-87
2023/08/04 01:12:12;;;;;;;9.48;8.00;;;;;;;28.21;51.64;98787.28;5001770;28;20045;-87
2023/08/04 01:14:41;;;;;;;10.75;9.68;;;;;;;28.12;51.58;98797.47;5013975;28;20026;-88
2023/08/04 01:17:30;;;;;;;8.50;7.60;;;;;;;27.93;52.33;98796.53;5013680;28;20030;-88
2023/08/04 01:19:56;;;;;;;11.75;8.30;;;;;;;27.91;52.40;98804.06;5013678;28;20424;-87
2023/08/04 01:22:23;;;;;;;10.85;7.93;;;;;;;27.89;52.47;98793.84;5013506;28;20037;-88
2023/08/04 01:24:53;;;;;;;8.00;7.20;;;;;;;27.86;52.50;98799.72;5009342;28;20050;-87
2023/08/04 01:27:23;;;;;;;12.95;8.00;;;;;;;28.02;52.48;98804.44;5008381;28;20452;-88
2023/08/04 01:29:49;;;;;;;11.25;7.90;;;;;;;28.05;52.23;98805.53;4993817;28;20056;-88
2023/08/04 01:32:15;;;;;;;14.80;8.32;;;;;;;27.87;52.71;98807.06;5002477;28;20033;-87
2023/08/04 01:34:44;;;;;;;9.90;8.38;;;;;;;27.75;52.50;98785.75;5013540;28;20026;-88
2023/08/04 01:37:10;;;;;;;11.15;7.88;;;;;;;27.92;52.04;98788.41;5014146;28;20472;-88
2023/08/04 01:39:37;;;;;;;8.77;7.78;;;;;;;27.91;52.32;98809.81;5013259;28;20026;-88
2023/08/04 01:42:04;;;;;;;9.68;7.60;;;;;;;27.73;52.60;98812.09;5012811;28;20505;-88
2023/08/04 01:44:29;;;;;;;12.63;8.65;;;;;;;27.87;52.74;98816.50;5013128;28;20026;-87
2023/08/04 01:46:54;;;;;;;13.88;8.07;;;;;;;28.07;51.80;98817.38;5012799;28;20065;-88
2023/08/04 01:49:20;;;;;;;14.70;7.57;;;;;;;27.87;52.44;98822.25;5013190;28;20026;-88
2023/08/04 01:51:45;;;;;;;8.60;7.68;;;;;;;28.07;51.62;98832.53;5013261;28;20308;-87
2023/08/04 01:54:11;;;;;;;10.82;8.75;;;;;;;27.87;52.71;98830.06;5012987;28;20051;-87
2023/08/04 01:56:36;;;;;;;11.50;9.30;;;;;;;27.45;53.80;98808.22;5012689;28;20060;-87
2023/08/04 01:59:02;;;;;;;15.27;11.05;;;;;;;27.27;54.92;98835.53;5012359;28;20057;-87
2023/08/04 02:01:27;;;;;;;19.48;9.60;;;;;;;27.58;53.71;98828.28;5012788;28;20029;-87
2023/08/04 02:03:53;;;;;;;12.90;9.48;;;;;;;27.73;53.04;98832.22;5012721;28;20050;-87
2023/08/04 02:06:18;;;;;;;15.57;10.00;;;;;;;27.77;53.10;98829.22;5013050;28;20061;-87
2023/08/04 02:08:43;;;;;;;13.43;9.02;;;;;;;27.89;53.02;98833.25;5012094;28;20548;-88
2023/08/04 02:11:09;;;;;;;12.27;9.75;;;;;;;27.72;52.97;98824.06;5012230;28;20045;-87
2023/08/04 02:13:34;;;;;;;11.60;9.82;;;;;;;27.98;52.36;98843.97;5012774;28;20030;-87
2023/08/04 02:16:00;;;;;;;13.68;9.25;;;;;;;27.81;52.54;98823.28;5007447;28;20041;-87
2023/08/04 02:18:26;;;;;;;15.10;9.93;;;;;;;27.85;52.90;98858.44;5004066;28;20029;-87
2023/08/04 02:20:51;;;;;;;17.30;10.27;;;;;;;27.96;52.45;98855.16;5012490;28;20057;-87
2023/08/04 02:23:17;;;;;;;20.50;9.18;;;;;;;27.88;52.46;98843.94;5012154;28;20030;-87
2023/08/04 02:25:42;;;;;;;10.75;9.60;;;;;;;27.79;53.27;98851.69;5013566;28;20032;-87
2023/08/04 02:28:08;;;;;;;10.00;8.68;;;;;;;27.72;53.50;98850.72;5012338;28;20037;-87
2023/08/04 02:30:33;;;;;;;13.68;9.13;;;;;;;27.80;52.83;98851.25;5013490;28;20088;-88
2023/08/04 02:32:58;;;;;;;15.68;9.32;;;;;;;27.92;52.60;98851.63;5006601;28;20030;-87
2023/08/04 02:35:24;;;;;;;10.43;9.43;;;;;;;27.92;53.01;98863.13;4993894;28;20030;-87
2023/08/04 02:37:49;;;;;;;14.38;9.40;;;;;;;27.89;52.90;98854.19;5007929;28;20033;-87
2023/08/04 02:40:15;;;;;;;9.90;8.90;;;;;;;27.94;52.79;98866.31;5012102;28;20025;-87
2023/08/04 02:42:40;;;;;;;10.98;8.93;;;;;;;27.93;53.25;98865.50;5012164;28;20552;-87
2023/08/04 02:45:06;;;;;;;10.13;9.13;;;;;;;27.89;52.86;98865.66;5011655;28;20139;-87
2023/08/04 02:47:32;;;;;;;20.13;9.38;;;;;;;27.85;53.00;98852.72;5012058;28;20046;-87
2023/08/04 02:49:57;;;;;;;16.98;10.07;;;;;;;26.97;56.07;98866.50;5011781;28;20038;-87
2023/08/04 02:52:23;;;;;;;20.58;10.73;;;;;;;26.66;57.22;98869.97;5011859;28;20068;-87
2023/08/04 02:54:53;;;;;;;16.60;10.80;;;;;;;26.06;59.71;98875.09;5011774;28;20057;-88
2023/08/04 02:57:18;;;;;;;;;;;;;;;25.41;62.60;98885.56;5012296;28;20040;-87
2023/08/04 02:59:44;;;;;;;16.65;11.10;;;;;;;25.59;62.42;98881.41;5011842;28;19909;-87
2023/08/04 03:02:09;;;;;;;18.70;12.98;;;;;;;25.93;61.09;98888.59;5011652;28;20034;-87
2023/08/04 03:04:35;;;;;;;22.33;11.73;;;;;;;25.92;60.56;98890.66;5011450;28;20037;-87
2023/08/04 03:07:00;;;;;;;12.00;10.75;;;;;;;25.56;61.67;98890.91;4998237;28;20033;-87
2023/08/04 03:09:25;;;;;;;15.05;11.45;;;;;;;25.61;61.36;98885.44;5010140;28;20040;-87
2023/08/04 03:11:51;;;;;;;15.18;11.35;;;;;;;25.77;60.95;98889.47;5011737;28;20052;-87
2023/08/04 03:14:16;;;;;;;15.27;12.40;;;;;;;25.97;60.26;98889.28;5011630;28;20485;-87
2023/08/04 03:16:42;;;;;;;18.27;12.07;;;;;;;25.91;60.73;98886.19;5011514;28;20088;-84
2023/08/04 03:19:07;;;;;;;17.23;10.75;;;;;;;26.09;59.82;98890.59;5012155;28;20034;-84
2023/08/04 03:21:33;;;;;;;26.00;11.50;;;;;;;26.02;60.03;98897.34;5003479;28;20576;-84
2023/08/04 03:23:59;;;;;;;32.25;12.32;;;;;;;25.48;61.97;98896.00;5010108;28;20030;-84
2023/08/04 03:26:24;;;;;;;18.90;12.10;;;;;;;25.68;61.42;98901.59;5011075;28;20022;-85
2023/08/04 03:28:50;;;;;;;17.88;10.95;;;;;;;25.66;60.59;98875.47;5010822;28;20088;-86
2023/08/04 03:31:15;;;;;;;20.30;12.30;;;;;;;25.81;60.25;98895.88;5010508;28;20464;-84
2023/08/04 03:33:41;;;;;;;15.40;12.25;;;;;;;25.90;59.59;98903.84;5010497;28;20018;-86
2023/08/04 03:36:06;;;;;;;26.63;12.27;;;;;;;25.79;60.16;98901.28;5010786;28;20045;-86
2023/08/04 03:38:32;;;;;;;25.35;12.70;;;;;;;25.99;59.69;98906.03;5009939;28;20111;-85
2023/08/04 03:40:57;;;;;;;26.13;11.68;;;;;;;25.97;59.68;98903.59;5010624;28;20032;-85
2023/08/04 03:43:23;;;;;;;21.08;11.45;;;;;;;25.86;60.38;98901.06;5008339;28;20901;-85
2023/08/04 03:45:48;;;;;;;18.05;12.68;;;;;;;25.49;61.37;98907.00;5015937;28;20069;-85
2023/08/04 03:48:13;;;;;;;14.38;11.90;;;;;;;25.54;61.33;98911.38;5009960;28;20041;-84
2023/08/04 03:50:39;;;;;;;20.83;12.60;;;;;;;25.43;61.69;98907.97;5009961;28;20026;-83
2023/08/04 03:53:04;;;;;;;17.25;13.18;;;;;;;24.80;63.46;98890.84;5010169;28;20061;-84
2023/08/04 03:55:30;;;;;;;17.23;12.07;;;;;;;25.22;62.49;98915.91;5008608;28;20017;-85
2023/08/04 03:57:55;;;;;;;16.98;11.82;;;;;;;25.57;61.37;98899.03;5009525;28;20029;-85
2023/08/04 04:00:21;;;;;;;25.08;11.77;;;;;;;25.89;60.68;98905.09;5009694;28;20018;-84
2023/08/04 04:02:47;;;;;;;22.55;12.77;;;;;;;26.04;60.13;98900.53;5006687;28;20649;-85
2023/08/04 04:05:12;;;;;;;19.65;12.48;;;;;;;26.36;59.31;98923.75;5011717;28;20054;-85
2023/08/04 04:07:38;;;;;;;16.83;11.27;;;;;;;26.48;58.78;98914.38;5008556;28;20034;-84
2023/08/04 04:10:04;;;;;;;16.00;12.30;;;;;;;26.42;58.87;98930.50;5008437;28;20053;-85
2023/08/04 04:12:30;;;;;;;18.13;13.30;;;;;;;26.26;58.95;98919.16;5007510;28;20113;-84
2023/08/04 04:14:55;;;;;;;16.73;12.15;;;;;;;26.06;60.08;98928.72;5008484;28;20018;-85
2023/08/04 04:17:21;;;;;;;18.05;11.70;;;;;;;25.73;61.57;98926.00;5005642;28;20052;-84
2023/08/04 04:19:47;;;;;;;15.50;11.40;;;;;;;25.62;62.16;98915.66;5007929;28;20045;-85
2023/08/04 04:22:14;;;;;;;13.93;11.85;;;;;;;25.81;62.20;98924.53;5009837;28;20148;-85
2023/08/04 04:24:39;;;;;;;21.50;11.63;;;;;;;25.72;61.91;98901.50;5010265;28;20041;-85
2023/08/04 04:27:05;;;;;;;15.27;12.18;;;;;;;25.80;61.85;98920.06;5010327;28;20022;-85
2023/08/04 04:29:32;;;;;;;14.48;11.98;;;;;;;25.87;61.93;98931.31;5010026;28;20018;-85
2023/08/04 04:31:57;;;;;;;19.88;11.80;;;;;;;26.17;61.54;98923.47;5009750;28;20026;-84
2023/08/04 04:34:23;;;;;;;16.15;13.00;;;;;;;26.22;61.53;98927.88;5003900;28;20030;-84
2023/08/04 04:36:48;;;;;;;13.68;12.25;;;;;;;26.18;61.11;98915.69;5012984;28;20060;-84
2023/08/04 04:39:14;;;;;;;14.05;12.63;;;;;;;26.30;61.16;98935.00;5010896;28;20030;-84
2023/08/04 04:41:39;;;;;;;17.85;13.23;;;;;;;26.24;61.10;98927.41;5011990;28;20051;-84
2023/08/04 04:44:05;;;;;;;17.00;13.02;;;;;;;26.51;60.85;98937.63;5009903;28;20036;-85
2023/08/04 04:46:30;;;;;;;19.95;13.85;;;;;;;26.52;60.71;98931.47;5013392;28;20045;-85
2023/08/04 04:48:56;;;;;;;14.77;12.77;;;;;;;26.23;61.27;98940.16;5012612;28;20033;-82
2023/08/04 04:51:22;;;;;;;15.57;12.07;;;;;;;26.49;60.22;98918.84;5011546;28;20022;-83
2023/08/04 04:53:47;;;;;;;16.08;10.57;;;;;;;26.92;59.16;98938.81;5010261;28;20022;-83
2023/08/04 04:56:13;;;;;;;14.25;11.50;;;;;;;27.30;57.46;98934.25;5010603;28;20028;-83
2023/08/04 04:58:38;;;;;;;14.07;11.40;;;;;;;27.57;57.36;98932.91;5013513;28;20017;-83
2023/08/04 05:01:04;;;;;;;17.33;11.52;;;;;;;27.75;57.47;98938.81;5012480;28;20025;-82
2023/08/04 05:03:30;;;;;;;18.95;11.10;;;;;;;27.89;56.38;98937.50;5012748;28;20416;-83
2023/08/04 05:05:55;;;;;;;12.77;10.35;;;;;;;28.12;56.00;98940.34;5013130;28;20029;-83
2023/08/04 05:08:21;;;;;;;21.65;12.10;;;;;;;28.25;55.25;98943.19;5012995;28;20022;-83
2023/08/04 05:10:51;;;;;;;13.63;11.82;;;;;;;28.46;53.35;98941.53;5009893;28;20127;-83
2023/08/04 05:13:16;;;;;;;13.23;11.57;;;;;;;28.61;53.50;98952.44;5011423;28;20416;-83
2023/08/04 05:15:41;;;;;;;13.68;11.18;;;;;;;28.54;53.34;98950.66;5013126;28;20022;-83
2023/08/04 05:18:07;;;;;;;15.15;11.70;;;;;;;28.75;53.38;98946.09;5012034;28;20504;-83
2023/08/04 05:20:32;;;;;;;18.35;11.25;;;;;;;28.97;52.79;98957.59;5014337;28;20432;-83
2023/08/04 05:22:58;;;;;;;14.63;11.27;;;;;;;29.04;52.66;98952.78;5011264;28;20111;-83
2023/08/04 05:25:23;;;;;;;12.50;9.93;;;;;;;29.08;51.38;98956.31;5012193;28;20022;-84
2023/08/04 05:27:50;;;;;;;18.77;10.93;;;;;;;29.35;51.18;98951.91;5004946;28;20051;-83
2023/08/04 05:30:15;;;;;;;12.02;10.75;;;;;;;29.51;50.63;98956.59;5009585;28;20038;-86
2023/08/04 05:32:41;;;;;;;14.38;10.82;;;;;;;29.48;50.34;98961.22;5005633;28;20036;-84
2023/08/04 05:35:09;;;;;;;12.90;10.90;;;;;;;29.37;50.19;98946.47;5009358;28;20025;-85
2023/08/04 05:37:34;;;;;;;12.52;11.23;;;;;;;29.52;49.83;98944.56;5009478;28;20026;-84
2023/08/04 05:40:00;;;;;;;12.77;9.40;;;;;;;29.59;49.03;98948.44;5008591;28;20041;-84
2023/08/04 05:42:25;;;;;;;14.82;10.63;;;;;;;29.60;49.01;98961.56;5007192;28;20040;-83
2023/08/04 05:44:51;;;;;;;11.73;10.60;;;;;;;29.58;49.31;98958.34;5010268;28;20033;-85
2023/08/04 05:47:17;;;;;;;12.02;10.10;;;;;;;29.26;50.03;98955.53;5002983;28;20146;-83
2023/08/04 05:49:45;;;;;;;15.55;10.85;;;;;;;28.92;49.99;98961.06;5005856;28;20030;-85
2023/08/04 05:52:11;;;;;;;17.33;10.68;;;;;;;29.10;50.46;98954.56;5009879;28;20497;-85
2023/08/04 05:54:36;;;;;;;13.70;9.77;;;;;;;29.34;49.95;98961.81;5005884;28;20029;-84
2023/08/04 05:57:02;;;;;;;19.88;11.07;;;;;;;29.68;48.88;98945.53;5003963;28;20034;-85
2023/08/04 05:59:27;;;;;;;18.50;9.57;;;;;;;29.93;48.67;98960.91;5009649;28;20030;-85
2023/08/04 06:01:53;;;;;;;13.23;11.07;;;;;;;29.65;49.07;98969.53;5023523;28;20032;-84
2023/08/04 06:04:18;;;;;;;22.60;11.10;;;;;;;29.52;49.23;98944.56;5015941;28;20485;-85
2023/08/04 06:06:44;;;;;;;12.98;10.55;;;;;;;29.55;49.30;98965.88;5014372;28;20030;-84
2023/08/04 06:09:09;;;;;;;12.85;10.93;;;;;;;29.57;48.92;98963.31;5025350;28;20022;-85
2023/08/04 06:11:35;;;;;;;12.60;11.32;;;;;;;29.12;48.91;98945.47;5013830;28;20513;-83
2023/08/04 06:14:00;;;;;;;17.58;10.45;;;;;;;29.38;48.83;98962.47;5007818;28;20531;-84
2023/08/04 06:16:26;;;;;;;14.27;10.75;;;;;;;29.47;48.38;98962.50;5009431;28;20025;-85
2023/08/04 06:18:51;;;;;;;16.67;12.20;;;;;;;29.65;47.75;98969.53;5013389;28;20029;-85
2023/08/04 06:21:17;;;;;;;16.75;11.77;;;;;;;29.80;47.58;98963.94;5017705;28;20033;-85
2023/08/04 06:23:45;;;;;;;21.83;11.85;;;;;;;29.66;48.75;98966.19;5018953;28;20029;-88
2023/08/04 06:26:12;;;;;;;18.33;11.82;;;;;;;29.78;48.64;98967.31;5010343;28;20026;-85
2023/08/04 06:28:37;;;;;;;15.00;12.57;;;;;;;29.83;47.26;98958.03;5009802;28;20052;-85
2023/08/04 06:31:03;;;;;;;16.15;11.63;;;;;;;29.59;48.08;98945.56;5011311;28;20025;-85
2023/08/04 06:33:28;;;;;;;15.77;11.02;;;;;;;29.97;48.36;98964.41;5010043;28;20622;-85
2023/08/04 06:35:54;;;;;;;21.48;12.02;;;;;;;30.39;47.42;98966.59;5013110;28;20030;-85
2023/08/04 06:38:19;;;;;;;14.00;11.68;;;;;;;29.98;47.13;98957.38;5013234;28;20021;-84
2023/08/04 06:40:45;;;;;;;16.00;11.38;;;;;;;30.09;46.95;98959.78;5010323;28;20101;-85
2023/08/04 06:43:10;;;;;;;14.52;11.23;;;;;;;30.33;46.49;98957.03;5010023;28;20026;-85
2023/08/04 06:45:36;;;;;;;12.15;10.77;;;;;;;30.63;45.22;98948.59;5010802;28;20049;-85
2023/08/04 06:48:01;;;;;;;17.00;11.50;;;;;;;30.70;45.11;98953.22;5011262;28;20539;-85
2023/08/04 06:50:27;;;;;;;15.55;11.50;;;;;;;31.03;44.31;98943.75;5011207;28;20029;-85
2023/08/04 06:52:52;;;;;;;15.20;11.85;;;;;;;31.12;44.61;98954.44;5015473;28;20013;-84
2023/08/04 06:55:18;;;;;;;21.98;12.35;;;;;;;30.68;45.14;98947.16;5009785;28;20025;-85
2023/08/04 06:57:43;;;;;;;16.60;11.45;;;;;;;30.77;45.72;98929.78;5008491;28;20059;-85
2023/08/04 07:00:09;;;;;;;19.80;11.90;;;;;;;30.86;46.09;98946.25;5007750;28;20022;-85
2023/08/04 07:02:35;;;;;;;15.48;12.15;;;;;;;30.72;46.22;98926.78;5024447;28;20022;-85
2023/08/04 07:05:00;;;;;;;14.07;12.48;;;;;;;30.94;46.22;98953.28;5011930;28;20032;-84
2023/08/04 07:07:26;;;;;;;12.88;11.60;;;;;;;30.72;46.39;98932.53;5009696;28;20132;-85
2023/08/04 07:09:51;;;;;;;16.92;12.25;;;;;;;30.99;45.80;98951.81;5011737;28;20026;-84
2023/08/04 07:12:17;;;;;;;13.88;11.38;;;;;;;30.72;45.21;98949.84;5009219;28;20033;-85
2023/08/04 07:14:42;;;;;;;22.52;12.60;;;;;;;30.71;44.85;98930.94;5007361;28;20556;-85
2023/08/04 07:17:07;;;;;;;18.33;11.90;;;;;;;31.06;45.69;98945.66;5010372;28;20022;-85
2023/08/04 07:19:33;;;;;;;13.23;11.07;;;;;;;31.22;44.54;98941.59;5012458;28;20112;-85
2023/08/04 07:21:58;;;;;;;15.82;12.65;;;;;;;31.69;44.53;98949.13;5008991;28;20116;-85
2023/08/04 07:24:25;;;;;;;19.38;12.52;;;;;;;31.93;43.13;98941.22;5012235;28;20025;-85
2023/08/04 07:26:50;;;;;;;14.52;12.35;;;;;;;31.69;42.61;98938.34;5010886;28;20025;-85
2023/08/04 07:29:16;;;;;;;16.70;12.63;;;;;;;31.24;43.21;98926.66;5009427;28;20505;-85
2023/08/04 07:31:41;;;;;;;17.27;12.43;;;;;;;31.47;43.11;98930.81;5009667;28;20096;-84
2023/08/04 07:34:06;;;;;;;12.65;11.07;;;;;;;31.79;45.40;98919.66;5009144;28;20037;-85
2023/08/04 07:36:32;;;;;;;24.02;12.30;;;;;;;31.65;42.82;98929.88;5010981;28;20025;-84
2023/08/04 07:38:57;;;;;;;15.38;11.88;;;;;;;31.99;42.33;98926.88;5011656;28;20087;-85
2023/08/04 07:41:26;;;;;;;15.50;12.43;;;;;;;32.28;42.58;98930.25;5009768;28;20509;-84
2023/08/04 07:43:52;;;;;;;16.67;12.45;;;;;;;32.53;41.31;98917.28;5007397;28;20032;-85
2023/08/04 07:46:19;;;;;;;13.55;11.57;;;;;;;32.59;41.22;98923.19;5002811;28;20392;-85
2023/08/04 07:48:45;;;;;;;13.05;11.52;;;;;;;32.76;41.61;98927.16;5008736;28;20042;-84
2023/08/04 07:51:11;;;;;;;13.52;11.40;;;;;;;32.88;40.54;98918.59;5006702;28;20389;-84
2023/08/04 07:53:37;;;;;;;13.02;11.43;;;;;;;32.87;40.38;98925.69;5010102;28;20436;-84
2023/08/04 07:56:02;;;;;;;25.77;12.93;;;;;;;32.99;41.42;98907.22;5011047;28;20026;-83
2023/08/04 07:58:27;;;;;;;19.80;12.07;;;;;;;32.90;41.34;98922.63;5008521;28;20084;-83
2023/08/04 08:00:53;;;;;;;19.80;12.25;;;;;;;32.68;43.43;98919.34;5009261;28;20030;-86
2023/08/04 08:03:18;;;;;;;17.90;11.70;;;;;;;32.66;41.83;98904.59;5010278;28;20021;-85
2023/08/04 08:05:44;;;;;;;12.02;10.93;;;;;;;32.90;41.34;98919.72;5008981;28;20512;-85
2023/08/04 08:08:09;;;;;;;17.48;11.75;;;;;;;33.07;41.29;98918.38;5009228;28;20523;-85
2023/08/04 08:10:35;;;;;;;17.33;13.45;;;;;;;33.17;41.60;98909.03;5018386;28;20014;-85
2023/08/04 08:13:02;;;;;;;19.73;12.35;;;;;;;33.31;40.03;98903.69;5016056;28;20034;-84
2023/08/04 08:15:27;;;;;;;15.25;11.75;;;;;;;33.32;40.63;98899.50;5015636;28;20109;-84
2023/08/04 08:17:53;;;;;;;15.80;11.75;;;;;;;33.26;40.95;98924.69;5013259;28;20084;-82
2023/08/04 08:20:18;;;;;;;12.65;11.43;;;;;;;33.38;40.86;98905.38;5032466;28;20484;-89
2023/08/04 08:22:44;;;;;;;18.45;11.70;;;;;;;33.70;39.20;98912.09;5017780;28;20030;-84
2023/08/04 08:25:12;;;;;;;17.33;11.20;;;;;;;33.84;37.83;98906.69;5017925;28;20042;-84
2023/08/04 08:27:38;;;;;;;18.00;12.18;;;;;;;33.31;38.55;98897.91;5013637;28;20029;-84
2023/08/04 08:30:04;;;;;;;12.65;10.25;;;;;;;33.61;39.59;98900.66;5010023;28;20842;-84
2023/08/04 08:32:29;;;;;;;15.68;11.45;;;;;;;33.77;37.71;98889.75;5013265;28;20383;-88
2023/08/04 08:34:55;;;;;;;14.88;11.77;;;;;;;33.71;40.80;98883.88;5013617;28;20033;-84
2023/08/04 08:40:42;;;;;;;17.08;11.75;;;;;;;34.13;37.71;98896.19;5012535;28;20088;-83
2023/08/04 08:46:47;;;;;;;13.27;11.70;;;;;;;34.53;37.46;98893.66;5018014;28;20058;-83
2023/08/04 08:49:13;;;;;;;13.10;10.75;;;;;;;34.74;35.31;98903.03;5012891;28;20524;-84
2023/08/04 08:52:34;;;;;;;14.13;10.25;;;;;;;34.90;36.05;98892.06;5010778;28;20053;-83
2023/08/04 08:55:04;;;;;;;12.35;10.25;;;;;;;34.90;35.80;98892.06;5013482;28;20045;-84
2023/08/04 08:57:30;;;;;;;11.90;9.35;;;;;;;34.96;35.54;98889.97;5021939;28;20025;-83
2023/08/04 09:00:04;;;;;;;16.15;10.00;;;;;;;35.03;34.95;98888.66;5015986;28;20041;-83
2023/08/04 09:02:33;;;;;;;13.32;8.60;;;;;;;34.94;35.30;98881.78;5009952;28;20145;-83
2023/08/04 09:04:59;;;;;;;9.98;8.57;;;;;;;34.88;35.03;98885.97;5011214;28;20030;-84
2023/08/04 09:07:25;;;;;;;12.50;7.97;;;;;;;34.88;35.16;98878.03;5018603;28;20025;-84
2023/08/04 09:09:50;;;;;;;8.70;7.90;;;;;;;34.90;35.33;98875.41;5011652;28;20036;-83
2023/08/04 09:12:16;;;;;;;8.68;7.78;;;;;;;34.70;33.95;98880.06;5007343;28;20075;-83
2023/08/04 09:14:53;;;;;;;12.57;8.25;;;;;;;34.86;34.29;98874.88;5029289;28;20064;-84
2023/08/04 09:17:29;;;;;;;11.80;8.27;;;;;;;34.94;32.61;98870.16;5008414;28;20032;-85
2023/08/04 09:19:55;;;;;;;9.27;8.10;;;;;;;34.96;34.75;98860.91;5021836;28;20099;-83
2023/08/04 09:25:05;;;;;;;12.82;7.93;;;;;;;34.93;33.42;98868.56;5014780;28;20029;-84
2023/08/04 09:27:33;;;;;;;11.20;8.52;;;;;;;33.85;35.03;98859.00;5008798;28;20018;-84
2023/08/04 09:30:03;;;;;;;11.65;8.82;;;;;;;34.32;35.84;98844.38;5012656;28;20500;-84
2023/08/04 09:36:09;;;;;;;9.38;8.48;;;;;;;35.36;34.21;98859.03;5001264;28;20037;-84
2023/08/04 09:38:36;;;;;;;11.98;8.90;;;;;;;35.65;33.30;98859.91;5010794;28;20033;-83
2023/08/04 09:41:04;;;;;;;10.85;8.52;;;;;;;35.62;33.92;98866.78;5011093;28;20033;-85
2023/08/04 09:43:30;;;;;;;26.13;9.45;;;;;;;35.42;33.01;98854.00;5004402;28;20037;-84
2023/08/04 09:46:05;;;;;;;9.05;8.18;;;;;;;35.63;34.56;98842.19;5007641;28;20026;-84
2023/08/04 09:48:30;;;;;;;9.27;8.48;;;;;;;35.81;33.17;98851.72;5007563;28;20034;-84
2023/08/04 09:51:21;;;;;;;17.38;9.38;;;;;;;35.94;33.22;98843.28;5009121;28;20048;-84
2023/08/04 09:53:49;;;;;;;11.55;8.95;;;;;;;35.91;33.76;98847.25;5007033;28;20492;-84
2023/08/04 09:56:17;;;;;;;9.65;8.73;;;;;;;35.75;33.52;98853.84;5013042;28;20029;-84
2023/08/04 09:58:44;;;;;;;12.95;9.43;;;;;;;35.76;33.00;98838.78;5021751;28;20026;-84
2023/08/04 10:01:10;;;;;;;10.65;9.05;;;;;;;35.35;32.47;98834.16;5012714;28;20030;-85
2023/08/04 10:03:49;;;;;;;9.68;8.75;;;;;;;35.29;32.79;98836.25;5011209;28;20028;-85
2023/08/04 10:06:15;;;;;;;9.93;8.77;;;;;;;35.92;33.72;98828.47;5017147;28;20485;-85
2023/08/04 10:08:41;;;;;;;18.05;10.07;;;;;;;36.23;32.37;98834.59;5022105;28;20022;-85
2023/08/04 10:11:07;;;;;;;14.25;9.50;;;;;;;36.21;32.76;98814.78;5011515;28;20030;-84
2023/08/04 10:13:42;;;;;;;14.68;9.73;;;;;;;36.32;31.58;98831.41;5020207;28;20568;-84
2023/08/04 10:16:11;;;;;;;9.82;8.82;;;;;;;36.43;32.41;98818.94;5011890;28;20036;-84
2023/08/04 10:18:53;;;;;;;11.80;8.75;;;;;;;36.67;31.71;98817.59;5012509;28;20117;-84
2023/08/04 10:21:21;;;;;;;11.13;9.20;;;;;;;36.58;32.96;98829.56;5006890;28;20030;-84
2023/08/04 10:23:48;;;;;;;9.55;8.57;;;;;;;36.46;32.63;98817.91;5005020;28;20033;-84
2023/08/04 10:26:14;;;;;;;12.40;9.27;;;;;;;36.94;32.39;98813.03;5025626;28;20026;-84
2023/08/04 10:29:02;;;;;;;9.63;8.73;;;;;;;36.89;31.84;98818.88;5007511;28;20021;-85
2023/08/04 10:31:56;;;;;;;13.73;9.90;;;;;;;37.21;31.96;98813.44;5008745;28;20404;-84
2023/08/04 10:34:24;;;;;;;10.82;9.48;;;;;;;37.17;31.93;98820.91;5005546;28;20116;-85
2023/08/04 10:37:14;;;;;;;10.38;9.35;;;;;;;37.36;31.50;98804.38;5013427;28;20026;-85
2023/08/04 10:39:58;;;;;;;11.88;9.77;;;;;;;37.43;31.83;98796.41;5009043;28;20492;-85
2023/08/04 10:42:26;;;;;;;11.00;8.85;;;;;;;37.42;31.16;98801.41;5013905;28;20405;-84
2023/08/04 10:44:54;;;;;;;16.58;9.32;;;;;;;37.71;31.16;98796.25;5007430;28;20030;-85
2023/08/04 10:47:46;;;;;;;12.70;10.38;;;;;;;37.76;31.20;98797.50;5005750;28;20052;-85
2023/08/04 10:50:13;;;;;;;10.45;8.80;;;;;;;37.55;31.82;98791.28;5002447;28;20025;-85
2023/08/04 10:52:39;;;;;;;13.02;10.07;;;;;;;37.41;31.58;98799.03;5014066;28;20575;-84
2023/08/04 10:55:07;;;;;;;10.40;9.35;;;;;;;37.40;30.98;98786.59;5008714;28;20055;-85
2023/08/04 10:57:34;;;;;;;9.30;8.40;;;;;;;37.48;32.54;98781.78;5008857;28;20511;-85
2023/08/04 11:00:01;;;;;;;10.02;8.70;;;;;;;37.74;31.70;98774.72;5008172;28;20042;-85
2023/08/04 11:02:27;;;;;;;10.40;9.35;;;;;;;38.03;30.04;98766.53;5007372;28;20026;-85
2023/08/04 11:04:53;;;;;;;10.32;9.30;;;;;;;38.10;29.58;98771.00;5001822;28;20032;-85
2023/08/04 11:07:21;;;;;;;9.55;8.27;;;;;;;37.84;30.68;98762.72;5008933;28;20025;-84
2023/08/04 11:09:48;;;;;;;13.23;9.23;;;;;;;37.87;30.03;98759.50;5006953;28;20034;-85
2023/08/04 11:12:14;;;;;;;13.30;9.73;;;;;;;37.98;29.35;98761.53;5011127;28;20030;-85
2023/08/04 11:14:41;;;;;;;13.95;9.43;;;;;;;38.10;29.95;98761.47;5004177;28;20025;-84
2023/08/04 11:17:20;;;;;;;14.30;9.63;;;;;;;38.02;29.83;98752.50;5006961;28;20045;-84
2023/08/04 11:19:50;;;;;;;9.45;8.55;;;;;;;38.05;30.33;98752.19;5007685;28;20029;-85
2023/08/04 11:22:25;;;;;;;16.73;8.88;;;;;;;38.39;30.62;98745.25;5021964;28;20068;-84
2023/08/04 11:24:53;;;;;;;15.27;9.30;;;;;;;38.94;29.44;98738.50;5008430;28;20456;-85
2023/08/04 11:27:19;;;;;;;16.88;9.60;;;;;;;39.12;28.74;98747.84;5004886;28;20037;-84
2023/08/04 11:29:51;;;;;;;11.70;8.43;;;;;;;39.02;28.25;98736.53;5010217;28;20064;-85
2023/08/04 11:32:20;;;;;;;19.08;9.32;;;;;;;38.74;27.77;98734.75;5011823;28;20481;-85
2023/08/04 11:34:46;;;;;;;11.93;9.30;;;;;;;38.54;28.83;98723.59;5014933;28;20485;-85